Latest Coastal Weather Observations for Kalumburu

IDW60701

Issued at 8:43 am WST Sunday 22 October 2017 (issued every 10 minutes, with the page automatically refreshed every 10 minutes)

About coastal observations | Map of coastal stations | Coastal observations for WA | Marine services | Other Formats
Station Details ID: 001019 Name: KALUMBURU Lat: -14.30 Lon: 126.65 Height: 23.0 m
Data from the previous 72 hours. | See also: Recent months at Kalumburu
Date/Time
WST
Temp
°C
Wind Pressure Rain since
9am
mm
Weather Cloud Vis
km
Sea
Height
m
Swell
Dir  Spd
kts
Gust
kts
hPa Trend Height
m
Period
s
Dir
22/08:30am 32.4 SSW 4 6 1011.7 - 30.8 - - - - - - -
22/08:00am 30.9 SSW 4 5 1011.8 - 30.8 - - - - - - -
22/07:30am 29.4 S 4 6 1011.8 - 30.8 - - - - - - -
22/07:00am 27.9 SSW 4 5 1011.6 - 30.6 - - - - - - -
22/06:30am 27.1 S 1 3 1011.2 - 30.6 - - - - - - -
22/06:00am 25.8 S 3 5 1010.8 - 30.6 - - - - - - -
22/05:30am 24.3 S 3 5 1010.5 - 30.6 - - - - - - -
22/05:00am 23.8 S 2 4 1010.3 - 30.6 - - - - - - -
22/04:30am 23.9 S 2 4 1010.1 - 30.6 - - - - - - -
22/04:00am 24.0 SSW 1 4 1009.9 - 30.6 - - - - - - -
22/03:30am 23.9 SSW 1 3 1009.9 - 30.6 - - - - - - -
22/03:00am 24.3 S 2 5 1009.7 - 30.6 - - - - - - -
22/02:30am 24.6 S 2 4 1009.7 - 30.6 - - - - - - -
22/02:00am 24.4 S 3 4 1009.9 - 30.6 - - - - - - -
22/01:30am 24.8 SSE 1 4 1010.0 - 30.6 - - - - - - -
22/01:00am 24.7 SSE 3 5 1010.2 - 30.6 - - - - - - -
22/12:30am 24.5 SSE 3 4 1010.2 - 30.6 - - - - - - -
22/12:00am 24.6 SSW 1 4 1010.4 - 30.6 - - - - - - -
 
Date/Time
WST
Temp
°C
Wind Pressure Rain since
9am
mm
Weather Cloud Vis
km
Sea
Height
m
Swell
Dir  Spd
kts
Gust
kts
hPa Trend Height
m
Period
s
Dir
21/11:30pm 24.5 CALM 0 0 1010.7 - 30.6 - - - - - - -
21/11:00pm 24.8 CALM 0 0 1011.0 - 30.6 - - - - - - -
21/10:30pm 24.8 CALM 0 0 1011.3 - 30.6 - - - - - - -
21/10:00pm 25.0 CALM 0 0 1011.6 - 30.6 - - - - - - -
21/09:30pm 25.3 CALM 0 3 1011.7 - 30.6 - - - - - - -
21/09:00pm 25.2 CALM 0 0 1011.6 - 30.6 - - - - - - -
21/08:30pm 25.6 CALM 0 0 1011.4 - 30.6 - - - - - - -
21/08:00pm 26.1 W 3 4 1011.1 - 30.6 - - - - - - -
21/07:30pm 26.0 SW 1 3 1011.0 - 30.6 - - - - - - -
21/07:00pm 26.2 SW 2 3 1010.8 - 30.6 - - - - - - -
21/06:30pm 26.7 W 3 5 1010.8 - 30.6 - - - - - - -
21/06:00pm 26.5 W 1 3 1010.5 - 30.6 - - - - - - -
21/05:30pm 27.2 SSW 3 4 1010.3 - 30.6 - - - - - - -
21/05:00pm 28.0 WNW 3 5 1010.1 - 30.6 - - - - - - -
21/04:30pm 28.3 W 2 5 1010.3 - 30.6 - - - - - - -
21/04:00pm 28.4 NW 2 4 1010.3 - 30.6 - - - - - - -
21/03:30pm 28.0 NW 4 7 1010.1 - 30.6 - - - - - - -
21/03:00pm 27.7 N 7 10 1009.6 - 30.6 - - - - - - -
21/02:30pm 26.9 WNW 1 4 1009.7 - 30.6 - - - - - - -
21/02:00pm 25.7 CALM 0 0 1009.9 - 30.6 - - - - - - -
21/01:30pm 25.1 NW 5 8 1010.3 - 30.6 - - - - - - -
21/01:00pm 24.6 WSW 5 9 1011.2 - 30.6 - - - - - - -
21/12:42pm 24.3 NE 17 27 1011.7 - 13.6 - - - - - - -
21/12:30pm 29.2 NNE 17 26 1010.7 - 0.0 - - - - - - -
21/12:26pm 30.7 N 13 23 1010.6 - 0.0 - - - - - - -
21/12:00pm 34.2 NNW 8 11 1010.7 - 0.0 - - - - - - -
21/11:30am 32.9 NNE 5 12 1011.6 - 0.0 - - - - - - -
21/11:00am 33.6 NNW 5 8 1012.1 - 0.0 - - - - - - -
21/10:30am 33.4 NNW 6 10 1012.8 - 0.0 - - - - - - -
21/10:00am 34.0 SE 3 5 1013.2 - 0.0 - - - - - - -
21/09:30am 33.5 SE 3 7 1013.5 - 0.0 - - - - - - -
21/09:00am 32.8 W 4 6 1014.0 - 0.0 - - - - - - -
21/08:30am 31.3 SW 4 6 1014.1 - 0.0 - - - - - - -
21/08:00am 30.9 SW 4 7 1013.9 - 0.0 - - - - - - -
21/07:30am 30.2 SSE 4 5 1013.9 - 0.0 - - - - - - -
21/07:00am 29.9 E 2 4 1013.5 - 0.0 - - - - - - -
21/06:30am 28.1 ENE 3 4 1013.0 - 0.0 - - - - - - -
21/06:00am 26.2 CALM 0 0 1012.3 - 0.0 - - - - - - -
21/05:30am 24.9 CALM 0 0 1011.6 - 0.0 - - - - - - -
21/05:00am 24.9 CALM 0 0 1011.2 - 0.0 - - - - - - -
21/04:30am 25.0 CALM 0 0 1010.9 - 0.0 - - - - - - -
21/04:00am 25.0 CALM 0 0 1010.6 - 0.0 - - - - - - -
21/03:30am 25.1 CALM 0 0 1010.5 - 0.0 - - - - - - -
21/03:00am 25.4 CALM 0 0 1010.4 - 0.0 - - - - - - -
21/02:30am 26.0 SSE 2 4 1010.1 - 0.0 - - - - - - -
21/02:00am 26.1 SSW 4 6 1010.0 - 0.0 - - - - - - -
21/01:30am 26.4 S 4 6 1010.2 - 0.0 - - - - - - -
21/01:00am 26.2 S 3 5 1010.6 - 0.0 - - - - - - -
21/12:30am 26.3 S 3 5 1010.7 - 0.0 - - - - - - -
21/12:00am 26.3 S 3 4 1010.9 - 0.0 - - - - - - -
 
Date/Time
WST
Temp
°C
Wind Pressure Rain since
9am
mm
Weather Cloud Vis
km
Sea
Height
m
Swell
Dir  Spd
kts
Gust
kts
hPa Trend Height
m
Period
s
Dir
20/11:30pm 26.6 S 3 6 1011.2 - 0.0 - - - - - - -
20/11:00pm 27.0 SW 3 4 1011.4 - 0.0 - - - - - - -
20/10:30pm 27.1 SW 3 4 1011.8 - 0.0 - - - - - - -
20/10:00pm 27.2 CALM 0 4 1012.0 - 0.0 - - - - - - -
20/09:30pm 27.1 SW 1 4 1012.4 - 0.0 - - - - - - -
20/09:00pm 26.9 CALM 0 3 1012.2 - 0.0 - - - - - - -
20/08:30pm 26.6 SW 1 3 1011.9 - 0.0 - - - - - - -
20/08:00pm 26.3 CALM 0 0 1011.4 - 0.0 - - - - - - -
20/07:30pm 26.6 CALM 0 0 1011.3 - 0.0 - - - - - - -
20/07:00pm 27.0 SSE 3 5 1011.2 - 0.0 - - - - - - -
20/06:30pm 27.3 SW 4 6 1010.9 - 0.0 - - - - - - -
20/06:00pm 27.0 SSE 2 4 1010.8 - 0.0 - - - - - - -
20/05:30pm 27.0 SSE 3 5 1010.1 - 0.0 - - - - - - -
20/05:00pm 27.4 S 3 6 1009.9 - 0.0 - - - - - - -
20/04:30pm 27.3 S 4 5 1009.3 - 0.0 - - - - - - -
20/04:00pm 28.8 SSE 7 10 1009.8 - 0.0 - - - - - - -
20/03:30pm 31.9 NE 7 13 1009.2 - 0.0 - - - - - - -
20/03:00pm 32.8 N 9 14 1008.3 - 0.0 - - - - - - -
20/02:30pm 33.4 N 15 19 1008.1 - 0.0 - - - - - - -
20/02:00pm 31.1 NNE 16 26 1009.1 - 0.0 - - - - - - -
20/01:42pm 30.5 NNE 14 27 1010.4 - 0.0 - - - - - - -
20/01:40pm 32.6 N 13 27 1010.6 - 0.0 - - - - - - -
20/01:30pm 35.0 N 11 16 1009.6 - 0.0 - - - - - - -
20/01:00pm 35.6 NNW 7 11 1009.6 - 0.0 - - - - - - -
20/12:30pm 35.0 NNW 9 14 1010.2 - 0.0 - - - - - - -
20/12:00pm 35.1 NNW 6 13 1010.8 - 0.0 - - - - - - -
20/11:30am 34.2 NNE 7 12 1011.4 - 0.0 - - - - - - -
20/11:00am 34.0 N 6 10 1011.9 - 0.0 - - - - - - -
20/10:30am 33.9 NNE 5 10 1012.3 - 0.0 - - - - - - -
20/10:00am 33.0 NNW 6 11 1012.5 - 0.0 - - - - - - -
20/09:30am 32.5 NNW 6 11 1012.8 - 0.0 - - - - - - -
20/09:00am 31.7 WNW 5 7 1012.8 - 0.0 - - - - - - -
20/08:30am 30.3 S 3 5 1013.1 - 0.0 - - - - - - -
20/08:00am 29.9 S 2 5 1013.3 - 0.0 - - - - - - -
20/07:30am 29.6 SSW 4 5 1012.4 - 0.0 - - - - - - -
20/07:00am 27.4 NNE 1 4 1012.0 - 0.0 - - - - - - -
20/06:30am 27.0 CALM 0 0 1011.8 - 0.0 - - - - - - -
20/06:00am 26.7 CALM 0 0 1011.2 - 0.0 - - - - - - -
20/05:30am 26.1 CALM 0 0 1011.1 - 0.0 - - - - - - -
20/05:00am 26.1 SE 2 4 1010.9 - 0.0 - - - - - - -
20/04:30am 25.8 ESE 3 4 1010.4 - 0.0 - - - - - - -
20/04:00am 25.9 SE 3 4 1009.8 - 0.0 - - - - - - -
20/03:30am 25.6 CALM 0 0 1009.4 - 0.0 - - - - - - -
20/03:00am 25.6 CALM 0 0 1009.2 - 0.0 - - - - - - -
20/02:30am 25.7 CALM 0 0 1009.1 - 0.0 - - - - - - -
20/02:00am 25.9 CALM 0 0 1009.1 - 0.0 - - - - - - -
20/01:30am 26.0 CALM 0 0 1009.0 - 0.0 - - - - - - -
20/01:00am 26.1 CALM 0 0 1009.1 - 0.0 - - - - - - -
20/12:30am 26.4 CALM 0 0 1009.4 - 0.0 - - - - - - -
20/12:00am 26.8 CALM 0 2 1009.7 - 0.0 - - - - - - -
 
Date/Time
WST
Temp
°C
Wind Pressure Rain since
9am
mm
Weather Cloud Vis
km
Sea
Height
m
Swell
Dir  Spd
kts
Gust
kts
hPa Trend Height
m
Period
s
Dir
19/11:30pm 27.7 WNW 1 4 1009.8 - 0.0 - - - - - - -
19/11:00pm 28.1 NW 4 5 1010.1 - 0.0 - - - - - - -
19/10:30pm 28.3 WNW 3 5 1010.4 - 0.0 - - - - - - -
19/10:00pm 28.6 NW 5 8 1010.6 - 0.0 - - - - - - -
19/09:30pm 28.7 NNW 4 7 1010.7 - 0.0 - - - - - - -
19/09:00pm 28.7 NNW 5 8 1010.6 - 0.0 - - - - - - -
19/08:30pm 28.9 NNW 6 9 1010.4 - 0.0 - - - - - - -
19/08:00pm 28.9 NNW 7 10 1010.0 - 0.0 - - - - - - -
19/07:30pm 29.0 NNW 6 9 1009.7 - 0.0 - - - - - - -
19/07:00pm 29.1 NNW 5 8 1009.2 - 0.0 - - - - - - -
19/06:30pm 29.1 N 7 10 1008.8 - 0.0 - - - - - - -
19/06:00pm 29.3 N 8 11 1008.4 - 0.0 - - - - - - -
19/05:30pm 29.5 NNW 10 14 1008.0 - 0.0 - - - - - - -
19/05:00pm 30.1 N 10 15 1007.4 - 0.0 - - - - - - -
19/04:30pm 30.8 N 13 19 1006.9 - 0.0 - - - - - - -
19/04:00pm 31.2 N 14 20 1006.4 - 0.0 - - - - - - -
19/03:30pm 30.9 NNW 10 15 1006.6 - 0.0 - - - - - - -
19/03:00pm 31.3 NNW 12 17 1006.7 - 0.0 - - - - - - -
19/02:30pm 31.9 NNW 9 14 1007.2 - 0.0 - - - - - - -
19/02:00pm 30.7 N 11 18 1006.8 - 0.0 - - - - - - -
19/01:30pm 31.7 N 14 20 1006.7 - 0.0 - - - - - - -
19/01:00pm 33.5 N 13 21 1007.1 - 0.0 - - - - - - -
19/12:30pm 33.4 N 12 16 1007.3 - 0.0 - - - - - - -
19/12:00pm 34.1 N 11 17 1007.8 - 0.0 - - - - - - -
19/11:30am 34.0 NNW 11 15 1007.9 - 0.0 - - - - - - -
19/11:00am 33.8 N 9 13 1008.3 - 0.0 - - - - - - -
19/10:30am 33.8 NNW 9 13 1008.5 - 0.0 - - - - - - -
19/10:00am 33.2 N 9 13 1008.4 - 0.0 - - - - - - -
19/09:30am 33.0 NNW 8 11 1008.5 - 0.0 - - - - - - -
19/09:00am 32.9 N 7 10 1008.7 - 0.0 - - - - - - -

Other Formats:

Comma delimited format used in spreadsheet applications
http://www.bom.gov.au/fwo/IDW60701/IDW60701.94100.axf

JavaScript Object Notation format (JSON) in row-major order
http://www.bom.gov.au/fwo/IDW60701/IDW60701.94100.json